createdAt,value
2022-09-13T00:01:27.391Z,13.60
2022-09-13T00:06:13.224Z,13.50
2022-09-13T00:10:56.542Z,13.30
2022-09-13T00:15:45.190Z,13.30
2022-09-13T00:20:28.864Z,13.40
2022-09-13T00:25:12.396Z,13.20
2022-09-13T00:29:56.036Z,13.10
2022-09-13T00:34:40.888Z,13.90
2022-09-13T00:39:24.345Z,14.00
2022-09-13T00:44:46.006Z,14.10
2022-09-13T00:49:37.156Z,13.90
2022-09-13T00:54:26.103Z,13.80
2022-09-13T00:59:13.251Z,13.60
2022-09-13T01:03:57.111Z,13.60
2022-09-13T01:08:42.494Z,13.80
2022-09-13T01:13:30.292Z,14.10
2022-09-13T01:18:14.136Z,14.00
2022-09-13T01:23:36.275Z,14.00
2022-09-13T01:28:50.845Z,15.10
2022-09-13T01:33:52.619Z,15.50
2022-09-13T01:38:45.565Z,15.90
2022-09-13T01:43:41.915Z,15.90
2022-09-13T01:48:33.685Z,15.10
2022-09-13T01:53:27.164Z,14.50
2022-09-13T01:58:20.136Z,14.10
2022-09-13T02:03:07.318Z,13.90
2022-09-13T02:07:56.534Z,13.80
2022-09-13T02:12:43.768Z,13.60
2022-09-13T02:17:32.355Z,13.30
2022-09-13T02:22:19.536Z,13.70
2022-09-13T02:27:08.276Z,13.60
2022-09-13T02:31:57.387Z,13.60
2022-09-13T02:36:42.592Z,13.70
2022-09-13T02:41:32.982Z,13.60
2022-09-13T02:46:23.371Z,13.50
2022-09-13T02:51:16.965Z,13.50
2022-09-13T02:56:10.946Z,13.50
2022-09-13T03:00:54.443Z,13.70
2022-09-13T03:05:37.904Z,13.70
2022-09-13T03:10:23.804Z,13.60
2022-09-13T03:15:17.726Z,13.50
2022-09-13T03:20:13.213Z,13.40
2022-09-13T03:25:05.090Z,13.60
2022-09-13T03:29:57.725Z,13.70
2022-09-13T03:34:46.400Z,14.20
2022-09-13T03:39:38.223Z,14.40
2022-09-13T03:44:24.061Z,14.30
2022-09-13T03:49:12.351Z,13.90
2022-09-13T03:53:59.563Z,13.60
2022-09-13T03:58:44.074Z,13.60
2022-09-13T04:03:27.598Z,13.40
2022-09-13T04:08:12.341Z,14.40
2022-09-13T04:12:56.124Z,14.70
2022-09-13T04:17:39.540Z,14.50
2022-09-13T04:22:22.944Z,14.40
2022-09-13T04:27:08.268Z,14.00
2022-09-13T04:31:53.423Z,13.80
2022-09-13T04:36:37.269Z,13.80
2022-09-13T04:41:20.646Z,13.80
2022-09-13T04:46:05.511Z,13.70
2022-09-13T04:50:49.380Z,14.20
2022-09-13T04:55:32.872Z,14.50
2022-09-13T05:00:16.733Z,14.50
2022-09-13T05:05:01.507Z,14.00
2022-09-13T05:09:44.911Z,13.70
2022-09-13T05:14:28.354Z,13.60
2022-09-13T05:19:13.351Z,13.40
2022-09-13T05:23:59.150Z,13.30
2022-09-13T05:28:42.583Z,13.10
2022-09-13T05:33:26.343Z,13.40
2022-09-13T05:38:09.691Z,13.50
2022-09-13T05:42:55.901Z,13.70
2022-09-13T05:47:42.143Z,13.60
2022-09-13T05:52:25.579Z,13.50
2022-09-13T05:57:08.959Z,13.40
2022-09-13T06:01:53.806Z,13.60
2022-09-13T06:06:37.340Z,13.80
2022-09-13T06:11:20.853Z,14.50
2022-09-13T06:16:06.492Z,14.30
2022-09-13T06:20:52.112Z,14.10
2022-09-13T06:25:35.554Z,13.90
2022-09-13T06:30:19.810Z,13.80
2022-09-13T06:35:03.243Z,14.10
2022-09-13T06:39:48.142Z,15.10
2022-09-13T06:44:31.503Z,16.20
2022-09-13T06:49:14.891Z,17.00
2022-09-13T06:53:58.845Z,17.40
2022-09-13T06:58:45.325Z,17.50
2022-09-13T07:03:29.185Z,17.30
2022-09-13T07:08:12.591Z,17.80
2022-09-13T07:12:56.027Z,18.30
2022-09-13T07:17:41.141Z,18.70
2022-09-13T07:22:27.232Z,19.00
2022-09-13T07:27:10.676Z,19.70
2022-09-13T07:31:56.862Z,20.20
2022-09-13T07:36:41.888Z,20.70
2022-09-13T07:41:26.681Z,20.90
2022-09-13T07:46:12.253Z,19.80
2022-09-13T07:51:00.394Z,19.70
2022-09-13T07:55:47.248Z,20.10
2022-09-13T08:00:30.743Z,20.50
2022-09-13T08:05:14.678Z,20.70
2022-09-13T08:09:58.099Z,21.50
2022-09-13T08:14:43.175Z,22.60
2022-09-13T08:19:26.658Z,22.30
2022-09-13T08:24:16.068Z,22.10
2022-09-13T08:29:01.007Z,22.00
2022-09-13T08:33:47.528Z,22.20
2022-09-13T08:38:32.372Z,23.30
2022-09-13T08:43:24.543Z,23.80
2022-09-13T08:48:15.652Z,23.00
2022-09-13T08:53:08.279Z,22.60
2022-09-13T08:57:57.090Z,23.50
2022-09-13T09:02:56.605Z,24.30
2022-09-13T09:07:44.220Z,24.10
2022-09-13T09:12:37.552Z,24.50
2022-09-13T09:17:26.020Z,25.50
2022-09-13T09:22:19.977Z,26.50
2022-09-13T09:27:04.445Z,27.10
2022-09-13T09:31:59.323Z,28.10
2022-09-13T09:36:46.999Z,28.40
2022-09-13T09:41:32.964Z,29.30
2022-09-13T09:46:18.222Z,29.50
2022-09-13T09:51:06.629Z,29.70
2022-09-13T09:55:54.053Z,29.70
2022-09-13T10:00:39.907Z,29.00
2022-09-13T10:05:26.475Z,29.10
2022-09-13T10:10:27.089Z,29.50
2022-09-13T10:15:19.632Z,28.70
2022-09-13T10:20:04.618Z,29.00
2022-09-13T10:24:48.494Z,28.90
2022-09-13T10:29:34.288Z,28.60
2022-09-13T10:34:21.842Z,28.70
2022-09-13T10:39:07.611Z,29.40
2022-09-13T10:43:57.778Z,29.40
2022-09-13T10:48:56.007Z,30.20
2022-09-13T10:53:41.166Z,31.50
2022-09-13T10:58:24.597Z,32.50
2022-09-13T11:03:33.297Z,32.20
2022-09-13T11:08:26.205Z,32.80
2022-09-13T11:13:23.652Z,33.70
2022-09-13T11:18:28.105Z,34.10
2022-09-13T11:23:50.173Z,34.50
2022-09-13T11:28:45.227Z,33.80
2022-09-13T11:33:37.702Z,33.80
2022-09-13T11:38:37.944Z,33.90
2022-09-13T11:43:39.495Z,33.10
2022-09-13T11:48:49.834Z,32.90
2022-09-13T11:54:00.940Z,32.00
2022-09-13T11:58:49.768Z,32.20
2022-09-13T12:03:41.167Z,32.80
2022-09-13T12:08:27.409Z,33.30
2022-09-13T12:13:16.375Z,34.10
2022-09-13T12:18:03.554Z,33.60
2022-09-13T12:22:49.160Z,33.60
2022-09-13T12:27:40.114Z,34.30
2022-09-13T12:32:25.488Z,35.50
2022-09-13T12:37:21.742Z,35.00
2022-09-13T12:42:46.283Z,34.00
2022-09-13T12:48:02.721Z,33.60
2022-09-13T12:52:59.206Z,33.60
2022-09-13T12:57:50.937Z,33.60
2022-09-13T13:02:37.307Z,33.00
2022-09-13T13:07:23.943Z,32.40
2022-09-13T13:12:08.064Z,31.80
2022-09-13T13:16:51.534Z,32.00
2022-09-13T13:21:38.420Z,33.20
2022-09-13T13:26:48.138Z,32.50
2022-09-13T13:31:40.108Z,32.40
2022-09-13T13:36:25.012Z,32.20
2022-09-13T13:41:30.052Z,31.60
2022-09-13T13:46:30.630Z,31.10
2022-09-13T13:51:19.908Z,31.10
2022-09-13T13:56:31.910Z,31.00
2022-09-13T14:01:20.593Z,30.60
2022-09-13T14:06:15.442Z,30.70
2022-09-13T14:11:11.240Z,30.70
2022-09-13T14:16:02.330Z,31.30
2022-09-13T14:21:03.090Z,32.10
2022-09-13T14:25:54.701Z,33.10
2022-09-13T14:30:40.017Z,32.00
2022-09-13T14:35:29.562Z,31.90
2022-09-13T14:40:19.514Z,32.60
2022-09-13T14:45:13.618Z,33.30
2022-09-13T14:50:05.096Z,33.60
2022-09-13T14:54:53.505Z,32.10
2022-09-13T14:59:45.979Z,30.60
2022-09-13T15:04:30.918Z,29.60
2022-09-13T15:09:28.087Z,29.80
2022-09-13T15:14:24.461Z,29.40
2022-09-13T15:19:18.411Z,29.30
2022-09-13T15:24:03.540Z,28.90
2022-09-13T15:28:51.064Z,29.20
2022-09-13T15:33:36.680Z,29.50
2022-09-13T15:38:26.365Z,29.30
2022-09-13T15:43:11.303Z,29.30
2022-09-13T15:47:54.910Z,29.10
2022-09-13T15:52:38.468Z,28.60
2022-09-13T15:57:25.673Z,28.20
2022-09-13T16:02:20.052Z,27.70
2022-09-13T16:07:03.535Z,27.10
2022-09-13T16:11:47.674Z,26.70
2022-09-13T16:16:31.199Z,26.50
2022-09-13T16:21:16.188Z,26.30
2022-09-13T16:26:01.184Z,26.10
2022-09-13T16:30:44.599Z,25.90
2022-09-13T16:35:31.623Z,25.40
2022-09-13T16:40:16.452Z,25.00
2022-09-13T16:45:00.235Z,24.70
2022-09-13T16:49:43.952Z,24.50
2022-09-13T16:54:27.759Z,24.30
2022-09-13T16:59:12.700Z,23.90
2022-09-13T17:03:57.521Z,23.80
2022-09-13T17:08:43.678Z,23.50
2022-09-13T17:13:27.307Z,23.40
2022-09-13T17:18:12.160Z,23.20
2022-09-13T17:22:55.527Z,23.00
2022-09-13T17:27:39.260Z,22.70
2022-09-13T17:32:22.802Z,22.40
2022-09-13T17:37:07.989Z,22.30
2022-09-13T17:41:51.636Z,22.10
2022-09-13T17:46:39.109Z,21.90
2022-09-13T17:51:27.981Z,21.60
2022-09-13T17:56:17.299Z,21.50
2022-09-13T18:01:05.082Z,21.30
2022-09-13T18:05:48.790Z,21.20
2022-09-13T18:10:58.086Z,21.10
2022-09-13T18:15:37.960Z,20.90
2022-09-13T18:20:22.471Z,20.70
2022-09-13T18:25:07.140Z,20.60
2022-09-13T18:29:50.947Z,20.60
2022-09-13T18:34:36.219Z,20.60
2022-09-13T18:39:21.870Z,20.50
2022-09-13T18:44:06.221Z,20.30
2022-09-13T18:48:52.102Z,20.20
2022-09-13T18:53:37.900Z,20.30
2022-09-13T18:58:21.696Z,20.20
2022-09-13T19:03:12.200Z,20.20
2022-09-13T19:07:57.688Z,20.10
2022-09-13T19:12:44.695Z,20.00
2022-09-13T19:17:28.599Z,20.00
2022-09-13T19:22:12.482Z,20.00
2022-09-13T19:26:56.389Z,19.90
2022-09-13T19:31:43.692Z,19.70
2022-09-13T19:36:32.076Z,19.60
2022-09-13T19:41:19.887Z,19.50
2022-09-13T19:46:04.903Z,19.40
2022-09-13T19:50:50.228Z,19.30
2022-09-13T19:55:34.051Z,19.30
2022-09-13T20:00:18.055Z,19.10
2022-09-13T20:05:02.042Z,19.00
2022-09-13T20:09:48.146Z,19.00
2022-09-13T20:14:33.680Z,19.00
2022-09-13T20:24:24.116Z,18.70
2022-09-13T20:29:11.659Z,18.80
2022-09-13T20:33:59.580Z,18.80
2022-09-13T20:38:44.272Z,19.00
2022-09-13T20:43:29.402Z,19.00
2022-09-13T20:48:14.774Z,19.00
2022-09-13T20:52:58.383Z,19.10
2022-09-13T20:57:41.927Z,19.10
2022-09-13T21:02:25.334Z,19.20
2022-09-13T21:07:30.111Z,19.20
2022-09-13T21:12:14.617Z,19.30
2022-09-13T21:16:58.686Z,19.30
2022-09-13T21:21:43.640Z,19.20
2022-09-13T21:26:30.458Z,19.20
2022-09-13T21:31:19.605Z,19.10
2022-09-13T21:36:07.021Z,19.10
2022-09-13T21:40:58.722Z,19.10
2022-09-13T21:45:46.273Z,19.00
2022-09-13T21:50:29.778Z,19.00
2022-09-13T21:55:13.217Z,19.00
2022-09-13T21:59:56.644Z,19.10
2022-09-13T22:04:41.420Z,19.10
2022-09-13T22:09:27.422Z,19.10
2022-09-13T22:14:12.294Z,19.10
2022-09-13T22:18:58.266Z,19.10
2022-09-13T22:23:43.520Z,19.10
2022-09-13T22:28:27.291Z,19.10
2022-09-13T22:33:10.726Z,19.10
2022-09-13T22:37:54.193Z,19.00
2022-09-13T22:42:39.048Z,18.90
2022-09-13T22:47:22.480Z,19.00
2022-09-13T22:52:06.202Z,18.90
2022-09-13T22:56:49.633Z,18.90
2022-09-13T23:01:35.176Z,18.70
2022-09-13T23:06:20.849Z,18.50
2022-09-13T23:11:12.808Z,18.60
2022-09-13T23:15:56.234Z,18.60
2022-09-13T23:20:41.651Z,18.60
2022-09-13T23:25:25.208Z,18.60
2022-09-13T23:30:09.615Z,18.70
2022-09-13T23:34:52.992Z,18.80
2022-09-13T23:39:38.471Z,18.70
2022-09-13T23:44:21.878Z,18.70
2022-09-13T23:49:05.766Z,18.70
2022-09-13T23:53:49.660Z,18.60
2022-09-13T23:58:34.458Z,18.50
